createdAt,value
2022-10-19T00:25:30.979Z,14
2022-10-19T00:54:26.748Z,20
2022-10-19T01:23:14.675Z,23
2022-10-19T01:52:13.765Z,28
2022-10-19T02:21:08.996Z,31
2022-10-19T02:49:59.325Z,30
2022-10-19T03:18:54.894Z,33
2022-10-19T03:47:56.943Z,25
2022-10-19T04:16:56.421Z,24
2022-10-19T04:45:56.551Z,27
2022-10-19T05:15:00.349Z,29
2022-10-19T05:43:44.407Z,24
2022-10-19T06:12:41.762Z,24
2022-10-19T06:41:31.653Z,25
2022-10-19T07:10:23.078Z,27
2022-10-19T07:39:28.222Z,28
2022-10-19T08:08:22.188Z,29
2022-10-19T08:36:51.088Z,26
2022-10-19T09:05:09.726Z,27
2022-10-19T09:33:32.298Z,23
2022-10-19T10:01:56.307Z,37
2022-10-19T10:30:18.650Z,28
2022-10-19T10:58:36.892Z,34
2022-10-19T11:27:05.604Z,34
2022-10-19T11:55:33.164Z,29
2022-10-19T12:23:31.545Z,27
2022-10-19T12:52:01.819Z,26
2022-10-19T13:20:24.726Z,22
2022-10-19T13:48:48.233Z,18
2022-10-19T14:17:13.175Z,19
2022-10-19T14:45:29.340Z,13
2022-10-19T15:13:46.188Z,8
2022-10-19T15:42:05.772Z,10
2022-10-19T16:10:19.991Z,11
2022-10-19T16:39:04.567Z,10
2022-10-19T17:07:56.427Z,10
2022-10-19T17:36:49.914Z,11
2022-10-19T18:05:30.529Z,14
2022-10-19T18:34:13.528Z,19
2022-10-19T19:03:14.004Z,18
2022-10-19T19:31:58.635Z,20
2022-10-19T20:01:07.382Z,15
2022-10-19T20:29:33.216Z,22
2022-10-19T20:57:50.137Z,23
2022-10-19T21:26:12.333Z,26
2022-10-19T21:54:26.461Z,28
2022-10-19T22:23:20.014Z,21
2022-10-19T22:52:23.815Z,27
2022-10-19T23:21:29.212Z,29
2022-10-19T23:50:22.337Z,46
